Terminal Aerodrome Forecast
Issued by NWS

Home | Current Version | Previous Version | Text Only | Print | Product List | Glossary On
Versions: 1 2 3 4 5 6 7 8 9 10 11 12 13 14 15 16 17 18 19 20 21
000
FTUS43 KGRR 270530
TAFJXN
TAF
KJXN 270530Z 2706/2806 VRB04KT P6SM VCSH OVC100
     FM271000 VRB04KT 6SM BR OVC100
     FM271500 13007KT P6SM BKN040
     FM280000 14005KT P6SM BKN100=

USA.gov is the U.S. government's official web portal to all federal, state and local government web resources and services.